sensor_id;sensor_type;location;lat;lon;timestamp;temperature;humidity
10352;DHT22;5222;49.324;8.420;2022-09-21T00:00:16;14.00;99.10
10352;DHT22;5222;49.324;8.420;2022-09-21T00:02:43;14.00;99.10
10352;DHT22;5222;49.324;8.420;2022-09-21T00:05:09;14.00;99.10
10352;DHT22;5222;49.324;8.420;2022-09-21T00:07:36;14.00;99.10
10352;DHT22;5222;49.324;8.420;2022-09-21T00:10:03;13.90;99.10
10352;DHT22;5222;49.324;8.420;2022-09-21T00:12:30;13.90;99.10
10352;DHT22;5222;49.324;8.420;2022-09-21T00:14:57;13.90;99.10
10352;DHT22;5222;49.324;8.420;2022-09-21T00:17:26;13.90;99.10
10352;DHT22;5222;49.324;8.420;2022-09-21T00:19:53;13.80;99.10
10352;DHT22;5222;49.324;8.420;2022-09-21T00:22:20;13.80;99.10
10352;DHT22;5222;49.324;8.420;2022-09-21T00:24:46;13.70;99.10
10352;DHT22;5222;49.324;8.420;2022-09-21T00:27:13;13.60;99.10
10352;DHT22;5222;49.324;8.420;2022-09-21T00:29:39;13.50;99.10
10352;DHT22;5222;49.324;8.420;2022-09-21T00:32:06;13.50;99.10
10352;DHT22;5222;49.324;8.420;2022-09-21T00:34:34;13.50;99.10
10352;DHT22;5222;49.324;8.420;2022-09-21T00:37:01;13.50;99.10
10352;DHT22;5222;49.324;8.420;2022-09-21T00:39:28;13.50;99.10
10352;DHT22;5222;49.324;8.420;2022-09-21T00:41:54;13.50;99.10
10352;DHT22;5222;49.324;8.420;2022-09-21T00:44:30;13.50;99.10
10352;DHT22;5222;49.324;8.420;2022-09-21T00:47:00;13.50;99.10
10352;DHT22;5222;49.324;8.420;2022-09-21T00:49:29;13.40;99.10
10352;DHT22;5222;49.324;8.420;2022-09-21T00:52:01;13.40;99.10
10352;DHT22;5222;49.324;8.420;2022-09-21T00:54:32;13.40;99.10
10352;DHT22;5222;49.324;8.420;2022-09-21T00:57:01;13.40;99.10
10352;DHT22;5222;49.324;8.420;2022-09-21T00:59:30;13.40;99.10
10352;DHT22;5222;49.324;8.420;2022-09-21T01:01:58;13.30;99.10
10352;DHT22;5222;49.324;8.420;2022-09-21T01:04:26;13.30;99.10
10352;DHT22;5222;49.324;8.420;2022-09-21T01:06:54;13.30;99.10
10352;DHT22;5222;49.324;8.420;2022-09-21T01:09:23;13.20;99.10
10352;DHT22;5222;49.324;8.420;2022-09-21T01:11:59;13.20;99.10
10352;DHT22;5222;49.324;8.420;2022-09-21T01:14:49;13.10;99.10
10352;DHT22;5222;49.324;8.420;2022-09-21T01:17:23;13.00;99.10
10352;DHT22;5222;49.324;8.420;2022-09-21T01:20:11;12.90;99.10
10352;DHT22;5222;49.324;8.420;2022-09-21T01:22:52;12.90;99.10
10352;DHT22;5222;49.324;8.420;2022-09-21T01:25:28;12.80;99.10
10352;DHT22;5222;49.324;8.420;2022-09-21T01:28:14;12.80;99.10
10352;DHT22;5222;49.324;8.420;2022-09-21T01:30:48;12.80;99.10
10352;DHT22;5222;49.324;8.420;2022-09-21T01:33:22;12.80;99.10
10352;DHT22;5222;49.324;8.420;2022-09-21T01:35:53;12.80;99.10
10352;DHT22;5222;49.324;8.420;2022-09-21T01:38:23;12.90;99.10
10352;DHT22;5222;49.324;8.420;2022-09-21T01:40:54;12.80;99.10
10352;DHT22;5222;49.324;8.420;2022-09-21T01:43:28;12.80;99.10
10352;DHT22;5222;49.324;8.420;2022-09-21T01:45:59;12.80;99.10
10352;DHT22;5222;49.324;8.420;2022-09-21T01:48:29;12.80;99.10
10352;DHT22;5222;49.324;8.420;2022-09-21T01:50:58;12.80;99.10
10352;DHT22;5222;49.324;8.420;2022-09-21T01:53:29;12.80;99.10
10352;DHT22;5222;49.324;8.420;2022-09-21T01:56:01;12.80;99.10
10352;DHT22;5222;49.324;8.420;2022-09-21T01:58:34;12.80;99.10
10352;DHT22;5222;49.324;8.420;2022-09-21T02:01:04;12.80;99.10
10352;DHT22;5222;49.324;8.420;2022-09-21T02:03:36;12.70;99.10
10352;DHT22;5222;49.324;8.420;2022-09-21T02:06:05;12.70;99.10
10352;DHT22;5222;49.324;8.420;2022-09-21T02:08:32;12.70;99.10
10352;DHT22;5222;49.324;8.420;2022-09-21T02:11:00;12.60;99.10
10352;DHT22;5222;49.324;8.420;2022-09-21T02:13:31;12.60;99.10
10352;DHT22;5222;49.324;8.420;2022-09-21T02:16:15;12.60;99.10
10352;DHT22;5222;49.324;8.420;2022-09-21T02:18:52;12.50;99.10
10352;DHT22;5222;49.324;8.420;2022-09-21T02:21:27;12.50;99.10
10352;DHT22;5222;49.324;8.420;2022-09-21T02:24:07;12.50;99.10
10352;DHT22;5222;49.324;8.420;2022-09-21T02:26:41;12.50;99.10
10352;DHT22;5222;49.324;8.420;2022-09-21T02:29:13;12.50;99.10
10352;DHT22;5222;49.324;8.420;2022-09-21T02:31:50;12.50;99.10
10352;DHT22;5222;49.324;8.420;2022-09-21T02:34:23;12.40;99.10
10352;DHT22;5222;49.324;8.420;2022-09-21T02:36:54;12.40;99.10
10352;DHT22;5222;49.324;8.420;2022-09-21T02:39:30;12.40;99.10
10352;DHT22;5222;49.324;8.420;2022-09-21T02:42:02;12.30;99.10
10352;DHT22;5222;49.324;8.420;2022-09-21T02:44:35;12.30;99.10
10352;DHT22;5222;49.324;8.420;2022-09-21T02:47:10;12.30;99.10
10352;DHT22;5222;49.324;8.420;2022-09-21T02:49:42;12.30;99.10
10352;DHT22;5222;49.324;8.420;2022-09-21T02:52:13;12.20;99.10
10352;DHT22;5222;49.324;8.420;2022-09-21T02:54:43;12.20;99.10
10352;DHT22;5222;49.324;8.420;2022-09-21T02:57:12;12.20;99.10
10352;DHT22;5222;49.324;8.420;2022-09-21T02:59:39;12.20;99.10
10352;DHT22;5222;49.324;8.420;2022-09-21T03:02:08;12.20;99.10
10352;DHT22;5222;49.324;8.420;2022-09-21T03:04:36;12.20;99.10
10352;DHT22;5222;49.324;8.420;2022-09-21T03:07:04;12.20;99.10
10352;DHT22;5222;49.324;8.420;2022-09-21T03:09:31;12.20;99.10
10352;DHT22;5222;49.324;8.420;2022-09-21T03:11:58;12.20;99.10
10352;DHT22;5222;49.324;8.420;2022-09-21T03:14:25;12.20;99.10
10352;DHT22;5222;49.324;8.420;2022-09-21T03:16:51;12.20;99.10
10352;DHT22;5222;49.324;8.420;2022-09-21T03:19:20;12.20;99.10
10352;DHT22;5222;49.324;8.420;2022-09-21T03:21:47;12.20;99.10
10352;DHT22;5222;49.324;8.420;2022-09-21T03:24:13;12.20;99.10
10352;DHT22;5222;49.324;8.420;2022-09-21T03:27:01;12.20;99.10
10352;DHT22;5222;49.324;8.420;2022-09-21T03:29:27;12.20;99.10
10352;DHT22;5222;49.324;8.420;2022-09-21T03:31:54;12.20;99.10
10352;DHT22;5222;49.324;8.420;2022-09-21T03:34:22;12.10;99.10
10352;DHT22;5222;49.324;8.420;2022-09-21T03:36:49;12.20;99.10
10352;DHT22;5222;49.324;8.420;2022-09-21T03:39:15;12.20;99.10
10352;DHT22;5222;49.324;8.420;2022-09-21T03:41:42;12.20;99.10
10352;DHT22;5222;49.324;8.420;2022-09-21T03:44:09;12.30;99.10
10352;DHT22;5222;49.324;8.420;2022-09-21T03:46:36;12.30;99.10
10352;DHT22;5222;49.324;8.420;2022-09-21T03:49:03;12.30;99.10
10352;DHT22;5222;49.324;8.420;2022-09-21T03:51:31;12.40;99.10
10352;DHT22;5222;49.324;8.420;2022-09-21T03:53:57;12.40;99.10
10352;DHT22;5222;49.324;8.420;2022-09-21T03:56:24;12.40;99.10
10352;DHT22;5222;49.324;8.420;2022-09-21T03:58:51;12.40;99.10
10352;DHT22;5222;49.324;8.420;2022-09-21T04:01:17;12.40;99.10
10352;DHT22;5222;49.324;8.420;2022-09-21T04:03:44;12.40;99.10
10352;DHT22;5222;49.324;8.420;2022-09-21T04:06:12;12.40;99.10
10352;DHT22;5222;49.324;8.420;2022-09-21T04:08:40;12.40;99.10
10352;DHT22;5222;49.324;8.420;2022-09-21T04:11:08;12.40;99.10
10352;DHT22;5222;49.324;8.420;2022-09-21T04:13:36;12.40;99.10
10352;DHT22;5222;49.324;8.420;2022-09-21T04:16:03;12.40;99.10
10352;DHT22;5222;49.324;8.420;2022-09-21T04:18:30;12.40;99.10
10352;DHT22;5222;49.324;8.420;2022-09-21T04:20:57;12.40;99.10
10352;DHT22;5222;49.324;8.420;2022-09-21T04:23:24;12.40;99.10
10352;DHT22;5222;49.324;8.420;2022-09-21T04:25:53;12.40;99.10
10352;DHT22;5222;49.324;8.420;2022-09-21T04:28:20;12.50;99.10
10352;DHT22;5222;49.324;8.420;2022-09-21T04:30:51;12.50;99.10
10352;DHT22;5222;49.324;8.420;2022-09-21T04:33:18;12.50;99.10
10352;DHT22;5222;49.324;8.420;2022-09-21T04:35:45;12.50;99.10
10352;DHT22;5222;49.324;8.420;2022-09-21T04:38:12;12.50;99.10
10352;DHT22;5222;49.324;8.420;2022-09-21T04:40:39;12.50;99.10
10352;DHT22;5222;49.324;8.420;2022-09-21T04:43:07;12.50;99.10
10352;DHT22;5222;49.324;8.420;2022-09-21T04:45:34;12.50;99.10
10352;DHT22;5222;49.324;8.420;2022-09-21T04:48:01;12.40;99.10
10352;DHT22;5222;49.324;8.420;2022-09-21T04:50:27;12.30;99.10
10352;DHT22;5222;49.324;8.420;2022-09-21T04:52:54;12.10;99.10
10352;DHT22;5222;49.324;8.420;2022-09-21T04:55:22;12.00;99.10
10352;DHT22;5222;49.324;8.420;2022-09-21T04:57:49;12.00;99.10
10352;DHT22;5222;49.324;8.420;2022-09-21T05:00:17;12.10;99.10
10352;DHT22;5222;49.324;8.420;2022-09-21T05:02:44;12.10;99.10
10352;DHT22;5222;49.324;8.420;2022-09-21T05:05:11;12.10;99.10
10352;DHT22;5222;49.324;8.420;2022-09-21T05:07:38;12.10;99.10
10352;DHT22;5222;49.324;8.420;2022-09-21T05:10:05;12.20;99.10
10352;DHT22;5222;49.324;8.420;2022-09-21T05:12:32;12.20;99.10
10352;DHT22;5222;49.324;8.420;2022-09-21T05:14:59;12.20;99.10
10352;DHT22;5222;49.324;8.420;2022-09-21T05:17:27;12.30;99.10
10352;DHT22;5222;49.324;8.420;2022-09-21T05:19:54;12.30;99.10
10352;DHT22;5222;49.324;8.420;2022-09-21T05:22:21;12.40;99.10
10352;DHT22;5222;49.324;8.420;2022-09-21T05:24:48;12.40;99.10
10352;DHT22;5222;49.324;8.420;2022-09-21T05:27:14;12.40;99.10
10352;DHT22;5222;49.324;8.420;2022-09-21T05:29:42;12.50;99.10
10352;DHT22;5222;49.324;8.420;2022-09-21T05:32:15;12.50;99.10
10352;DHT22;5222;49.324;8.420;2022-09-21T05:34:52;12.50;99.10
10352;DHT22;5222;49.324;8.420;2022-09-21T05:40:20;12.50;99.10
10352;DHT22;5222;49.324;8.420;2022-09-21T05:42:47;12.50;99.10
10352;DHT22;5222;49.324;8.420;2022-09-21T05:45:16;12.50;99.10
10352;DHT22;5222;49.324;8.420;2022-09-21T05:48:00;12.50;99.10
10352;DHT22;5222;49.324;8.420;2022-09-21T05:54:01;12.50;99.10
10352;DHT22;5222;49.324;8.420;2022-09-21T05:56:41;12.60;99.10
10352;DHT22;5222;49.324;8.420;2022-09-21T05:59:28;12.70;99.10
10352;DHT22;5222;49.324;8.420;2022-09-21T06:02:03;12.80;99.10
10352;DHT22;5222;49.324;8.420;2022-09-21T06:04:32;12.90;99.10
10352;DHT22;5222;49.324;8.420;2022-09-21T06:06:59;12.90;99.10
10352;DHT22;5222;49.324;8.420;2022-09-21T06:09:27;12.80;99.10
10352;DHT22;5222;49.324;8.420;2022-09-21T06:11:53;12.80;99.10
10352;DHT22;5222;49.324;8.420;2022-09-21T06:14:20;12.90;99.10
10352;DHT22;5222;49.324;8.420;2022-09-21T06:16:50;12.90;99.10
10352;DHT22;5222;49.324;8.420;2022-09-21T06:19:17;12.90;99.10
10352;DHT22;5222;49.324;8.420;2022-09-21T06:21:44;12.90;99.10
10352;DHT22;5222;49.324;8.420;2022-09-21T06:24:11;12.90;99.10
10352;DHT22;5222;49.324;8.420;2022-09-21T06:26:41;12.90;99.10
10352;DHT22;5222;49.324;8.420;2022-09-21T06:29:08;13.00;99.10
10352;DHT22;5222;49.324;8.420;2022-09-21T06:31:34;13.20;99.10
10352;DHT22;5222;49.324;8.420;2022-09-21T06:34:01;13.20;99.10
10352;DHT22;5222;49.324;8.420;2022-09-21T06:36:28;13.20;99.10
10352;DHT22;5222;49.324;8.420;2022-09-21T06:38:55;13.10;99.10
10352;DHT22;5222;49.324;8.420;2022-09-21T06:41:22;13.10;99.10
10352;DHT22;5222;49.324;8.420;2022-09-21T06:43:53;13.20;99.10
10352;DHT22;5222;49.324;8.420;2022-09-21T06:46:21;13.20;99.10
10352;DHT22;5222;49.324;8.420;2022-09-21T06:48:50;13.30;99.10
10352;DHT22;5222;49.324;8.420;2022-09-21T06:51:17;13.60;99.10
10352;DHT22;5222;49.324;8.420;2022-09-21T06:53:46;13.80;99.10
10352;DHT22;5222;49.324;8.420;2022-09-21T06:56:13;13.80;99.10
10352;DHT22;5222;49.324;8.420;2022-09-21T06:58:40;14.00;99.10
10352;DHT22;5222;49.324;8.420;2022-09-21T07:01:11;14.20;99.10
10352;DHT22;5222;49.324;8.420;2022-09-21T07:03:39;14.50;99.10
10352;DHT22;5222;49.324;8.420;2022-09-21T07:06:07;14.80;99.10
10352;DHT22;5222;49.324;8.420;2022-09-21T07:08:36;15.00;99.10
10352;DHT22;5222;49.324;8.420;2022-09-21T07:11:03;15.20;99.10
10352;DHT22;5222;49.324;8.420;2022-09-21T07:13:30;15.40;99.10
10352;DHT22;5222;49.324;8.420;2022-09-21T07:15:57;15.90;99.10
10352;DHT22;5222;49.324;8.420;2022-09-21T07:18:25;16.70;99.10
10352;DHT22;5222;49.324;8.420;2022-09-21T07:20:52;17.50;99.10
10352;DHT22;5222;49.324;8.420;2022-09-21T07:23:19;18.50;99.10
10352;DHT22;5222;49.324;8.420;2022-09-21T07:25:48;19.40;96.80
10352;DHT22;5222;49.324;8.420;2022-09-21T07:28:17;20.10;94.30
10352;DHT22;5222;49.324;8.420;2022-09-21T07:30:44;20.70;92.50
10352;DHT22;5222;49.324;8.420;2022-09-21T07:33:11;21.20;91.30
10352;DHT22;5222;49.324;8.420;2022-09-21T07:35:39;21.70;89.80
10352;DHT22;5222;49.324;8.420;2022-09-21T07:38:06;21.90;89.00
10352;DHT22;5222;49.324;8.420;2022-09-21T07:40:34;22.40;88.20
10352;DHT22;5222;49.324;8.420;2022-09-21T07:43:01;22.70;86.90
10352;DHT22;5222;49.324;8.420;2022-09-21T07:45:29;22.80;86.40
10352;DHT22;5222;49.324;8.420;2022-09-21T07:48:01;23.10;85.80
10352;DHT22;5222;49.324;8.420;2022-09-21T07:50:29;23.30;85.50
10352;DHT22;5222;49.324;8.420;2022-09-21T07:52:57;23.70;85.20
10352;DHT22;5222;49.324;8.420;2022-09-21T07:55:25;23.70;84.20
10352;DHT22;5222;49.324;8.420;2022-09-21T07:57:51;24.10;83.60
10352;DHT22;5222;49.324;8.420;2022-09-21T08:00:36;24.60;83.00
10352;DHT22;5222;49.324;8.420;2022-09-21T08:03:02;24.60;82.90
10352;DHT22;5222;49.324;8.420;2022-09-21T08:05:30;24.70;82.00
10352;DHT22;5222;49.324;8.420;2022-09-21T08:08:00;24.30;82.10
10352;DHT22;5222;49.324;8.420;2022-09-21T08:10:27;24.30;82.50
10352;DHT22;5222;49.324;8.420;2022-09-21T08:12:56;24.70;82.40
10352;DHT22;5222;49.324;8.420;2022-09-21T08:15:23;24.80;82.40
10352;DHT22;5222;49.324;8.420;2022-09-21T08:17:51;24.70;82.00
10352;DHT22;5222;49.324;8.420;2022-09-21T08:20:21;24.20;82.70
10352;DHT22;5222;49.324;8.420;2022-09-21T08:22:48;24.10;82.90
10352;DHT22;5222;49.324;8.420;2022-09-21T08:25:16;23.90;83.20
10352;DHT22;5222;49.324;8.420;2022-09-21T08:27:42;23.60;83.40
10352;DHT22;5222;49.324;8.420;2022-09-21T08:30:09;23.00;84.30
10352;DHT22;5222;49.324;8.420;2022-09-21T08:32:38;22.50;85.60
10352;DHT22;5222;49.324;8.420;2022-09-21T08:35:06;22.00;86.10
10352;DHT22;5222;49.324;8.420;2022-09-21T08:37:34;22.00;86.50
10352;DHT22;5222;49.324;8.420;2022-09-21T08:40:03;22.10;86.70
10352;DHT22;5222;49.324;8.420;2022-09-21T08:42:51;21.90;86.90
10352;DHT22;5222;49.324;8.420;2022-09-21T08:45:20;21.90;87.20
10352;DHT22;5222;49.324;8.420;2022-09-21T08:47:49;21.50;87.30
10352;DHT22;5222;49.324;8.420;2022-09-21T08:50:38;21.60;87.70
10352;DHT22;5222;49.324;8.420;2022-09-21T08:53:10;21.70;86.50
10352;DHT22;5222;49.324;8.420;2022-09-21T08:55:37;22.00;86.80
10352;DHT22;5222;49.324;8.420;2022-09-21T08:58:19;21.90;86.60
10352;DHT22;5222;49.324;8.420;2022-09-21T09:00:48;21.80;86.40
10352;DHT22;5222;49.324;8.420;2022-09-21T09:03:37;21.70;86.40
10352;DHT22;5222;49.324;8.420;2022-09-21T09:06:13;21.50;86.60
10352;DHT22;5222;49.324;8.420;2022-09-21T09:08:53;20.90;88.60
10352;DHT22;5222;49.324;8.420;2022-09-21T09:11:36;21.20;88.30
10352;DHT22;5222;49.324;8.420;2022-09-21T09:14:19;21.30;88.00
10352;DHT22;5222;49.324;8.420;2022-09-21T09:17:03;21.50;87.90
10352;DHT22;5222;49.324;8.420;2022-09-21T09:19:42;21.70;88.00
10352;DHT22;5222;49.324;8.420;2022-09-21T09:22:13;22.00;87.40
10352;DHT22;5222;49.324;8.420;2022-09-21T09:24:44;21.90;87.00
10352;DHT22;5222;49.324;8.420;2022-09-21T09:27:15;21.60;87.90
10352;DHT22;5222;49.324;8.420;2022-09-21T09:29:52;21.60;88.10
10352;DHT22;5222;49.324;8.420;2022-09-21T09:32:26;21.80;87.60
10352;DHT22;5222;49.324;8.420;2022-09-21T09:35:01;21.90;87.20
10352;DHT22;5222;49.324;8.420;2022-09-21T09:37:32;21.90;87.30
10352;DHT22;5222;49.324;8.420;2022-09-21T09:40:01;22.20;87.30
10352;DHT22;5222;49.324;8.420;2022-09-21T09:42:38;22.30;86.90
10352;DHT22;5222;49.324;8.420;2022-09-21T09:45:18;21.70;86.70
10352;DHT22;5222;49.324;8.420;2022-09-21T09:48:00;21.80;86.80
10352;DHT22;5222;49.324;8.420;2022-09-21T09:50:29;22.30;86.10
10352;DHT22;5222;49.324;8.420;2022-09-21T09:53:02;22.50;85.50
10352;DHT22;5222;49.324;8.420;2022-09-21T09:55:35;22.40;85.30
10352;DHT22;5222;49.324;8.420;2022-09-21T09:58:03;22.20;85.50
10352;DHT22;5222;49.324;8.420;2022-09-21T10:00:31;22.00;86.50
10352;DHT22;5222;49.324;8.420;2022-09-21T10:02:58;21.70;86.60
10352;DHT22;5222;49.324;8.420;2022-09-21T10:05:31;21.70;86.50
10352;DHT22;5222;49.324;8.420;2022-09-21T10:07:58;21.60;87.00
10352;DHT22;5222;49.324;8.420;2022-09-21T10:10:31;22.00;86.40
10352;DHT22;5222;49.324;8.420;2022-09-21T10:13:10;22.40;85.40
10352;DHT22;5222;49.324;8.420;2022-09-21T10:15:44;22.90;85.20
10352;DHT22;5222;49.324;8.420;2022-09-21T10:18:17;23.20;84.10
10352;DHT22;5222;49.324;8.420;2022-09-21T10:20:57;23.40;83.80
10352;DHT22;5222;49.324;8.420;2022-09-21T10:23:26;23.20;83.00
10352;DHT22;5222;49.324;8.420;2022-09-21T10:25:59;23.00;83.00
10352;DHT22;5222;49.324;8.420;2022-09-21T10:28:28;23.10;82.90
10352;DHT22;5222;49.324;8.420;2022-09-21T10:31:16;23.00;83.60
10352;DHT22;5222;49.324;8.420;2022-09-21T10:33:48;23.00;83.50
10352;DHT22;5222;49.324;8.420;2022-09-21T10:36:25;23.00;83.60
10352;DHT22;5222;49.324;8.420;2022-09-21T10:38:52;23.00;83.40
10352;DHT22;5222;49.324;8.420;2022-09-21T10:41:19;23.00;83.90
10352;DHT22;5222;49.324;8.420;2022-09-21T10:43:47;22.90;82.80
10352;DHT22;5222;49.324;8.420;2022-09-21T10:46:16;22.30;83.40
10352;DHT22;5222;49.324;8.420;2022-09-21T10:48:57;22.30;84.20
10352;DHT22;5222;49.324;8.420;2022-09-21T10:51:27;22.10;84.50
10352;DHT22;5222;49.324;8.420;2022-09-21T10:53:54;22.30;84.80
10352;DHT22;5222;49.324;8.420;2022-09-21T10:56:22;22.40;84.30
10352;DHT22;5222;49.324;8.420;2022-09-21T10:59:19;22.70;83.50
10352;DHT22;5222;49.324;8.420;2022-09-21T11:01:50;23.20;82.90
10352;DHT22;5222;49.324;8.420;2022-09-21T11:04:33;23.20;81.80
10352;DHT22;5222;49.324;8.420;2022-09-21T11:07:06;22.80;82.30
10352;DHT22;5222;49.324;8.420;2022-09-21T11:09:38;22.50;82.80
10352;DHT22;5222;49.324;8.420;2022-09-21T11:12:10;22.50;83.00
10352;DHT22;5222;49.324;8.420;2022-09-21T11:14:47;23.00;82.30
10352;DHT22;5222;49.324;8.420;2022-09-21T11:17:23;23.60;81.30
10352;DHT22;5222;49.324;8.420;2022-09-21T11:19:56;23.90;80.40
10352;DHT22;5222;49.324;8.420;2022-09-21T11:22:31;23.70;79.90
10352;DHT22;5222;49.324;8.420;2022-09-21T11:25:21;23.90;79.40
10352;DHT22;5222;49.324;8.420;2022-09-21T11:27:53;24.20;79.00
10352;DHT22;5222;49.324;8.420;2022-09-21T11:30:22;24.20;78.60
10352;DHT22;5222;49.324;8.420;2022-09-21T11:33:04;24.20;78.60
10352;DHT22;5222;49.324;8.420;2022-09-21T11:35:45;24.10;79.30
10352;DHT22;5222;49.324;8.420;2022-09-21T11:38:25;24.50;78.20
10352;DHT22;5222;49.324;8.420;2022-09-21T11:41:05;24.40;77.30
10352;DHT22;5222;49.324;8.420;2022-09-21T11:43:49;24.30;77.80
10352;DHT22;5222;49.324;8.420;2022-09-21T11:46:24;24.60;77.90
10352;DHT22;5222;49.324;8.420;2022-09-21T11:49:15;25.00;76.70
10352;DHT22;5222;49.324;8.420;2022-09-21T11:52:06;25.00;75.90
10352;DHT22;5222;49.324;8.420;2022-09-21T11:55:06;25.00;75.80
10352;DHT22;5222;49.324;8.420;2022-09-21T11:57:42;24.80;76.50
10352;DHT22;5222;49.324;8.420;2022-09-21T12:00:14;25.20;75.60
10352;DHT22;5222;49.324;8.420;2022-09-21T12:03:01;25.50;75.80
10352;DHT22;5222;49.324;8.420;2022-09-21T12:05:36;25.60;75.10
10352;DHT22;5222;49.324;8.420;2022-09-21T12:08:17;25.50;74.70
10352;DHT22;5222;49.324;8.420;2022-09-21T12:10:55;24.90;75.60
10352;DHT22;5222;49.324;8.420;2022-09-21T12:13:34;25.10;75.40
10352;DHT22;5222;49.324;8.420;2022-09-21T12:16:05;24.80;76.30
10352;DHT22;5222;49.324;8.420;2022-09-21T12:18:39;24.90;76.30
10352;DHT22;5222;49.324;8.420;2022-09-21T12:21:19;24.20;77.40
10352;DHT22;5222;49.324;8.420;2022-09-21T12:23:49;23.50;78.30
10352;DHT22;5222;49.324;8.420;2022-09-21T12:26:21;23.00;80.10
10352;DHT22;5222;49.324;8.420;2022-09-21T12:28:52;23.20;80.00
10352;DHT22;5222;49.324;8.420;2022-09-21T12:31:22;23.10;79.00
10352;DHT22;5222;49.324;8.420;2022-09-21T12:33:52;23.00;79.60
10352;DHT22;5222;49.324;8.420;2022-09-21T12:36:26;23.30;79.20
10352;DHT22;5222;49.324;8.420;2022-09-21T12:38:59;23.90;78.30
10352;DHT22;5222;49.324;8.420;2022-09-21T12:41:32;24.30;77.30
10352;DHT22;5222;49.324;8.420;2022-09-21T12:44:06;24.70;76.40
10352;DHT22;5222;49.324;8.420;2022-09-21T12:46:39;24.80;75.70
10352;DHT22;5222;49.324;8.420;2022-09-21T12:49:10;24.20;75.50
10352;DHT22;5222;49.324;8.420;2022-09-21T12:51:43;23.50;75.90
10352;DHT22;5222;49.324;8.420;2022-09-21T12:54:18;23.70;75.50
10352;DHT22;5222;49.324;8.420;2022-09-21T12:56:54;23.60;75.70
10352;DHT22;5222;49.324;8.420;2022-09-21T12:59:29;22.90;76.80
10352;DHT22;5222;49.324;8.420;2022-09-21T13:02:03;22.80;77.90
10352;DHT22;5222;49.324;8.420;2022-09-21T13:04:43;22.80;78.20
10352;DHT22;5222;49.324;8.420;2022-09-21T13:07:42;23.10;77.90
10352;DHT22;5222;49.324;8.420;2022-09-21T13:10:17;23.30;76.10
10352;DHT22;5222;49.324;8.420;2022-09-21T13:12:49;23.60;76.30
10352;DHT22;5222;49.324;8.420;2022-09-21T13:15:22;23.80;76.50
10352;DHT22;5222;49.324;8.420;2022-09-21T13:17:57;23.90;75.90
10352;DHT22;5222;49.324;8.420;2022-09-21T13:20:25;23.70;75.50
10352;DHT22;5222;49.324;8.420;2022-09-21T13:22:59;23.70;75.10
10352;DHT22;5222;49.324;8.420;2022-09-21T13:25:28;23.50;75.50
10352;DHT22;5222;49.324;8.420;2022-09-21T13:28:01;23.60;76.30
10352;DHT22;5222;49.324;8.420;2022-09-21T13:30:39;23.90;76.00
10352;DHT22;5222;49.324;8.420;2022-09-21T13:33:29;23.90;75.40
10352;DHT22;5222;49.324;8.420;2022-09-21T13:36:02;23.90;74.70
10352;DHT22;5222;49.324;8.420;2022-09-21T13:38:32;23.80;74.70
10352;DHT22;5222;49.324;8.420;2022-09-21T13:41:03;24.10;74.40
10352;DHT22;5222;49.324;8.420;2022-09-21T13:43:58;24.30;74.10
10352;DHT22;5222;49.324;8.420;2022-09-21T13:46:52;24.60;74.30
10352;DHT22;5222;49.324;8.420;2022-09-21T13:49:29;24.10;74.70
10352;DHT22;5222;49.324;8.420;2022-09-21T13:52:00;23.20;76.40
10352;DHT22;5222;49.324;8.420;2022-09-21T13:54:32;23.00;77.70
10352;DHT22;5222;49.324;8.420;2022-09-21T13:57:06;23.20;76.80
10352;DHT22;5222;49.324;8.420;2022-09-21T13:59:41;23.10;76.50
10352;DHT22;5222;49.324;8.420;2022-09-21T14:02:27;22.90;77.60
10352;DHT22;5222;49.324;8.420;2022-09-21T14:05:00;22.90;78.80
10352;DHT22;5222;49.324;8.420;2022-09-21T14:07:29;22.60;78.80
10352;DHT22;5222;49.324;8.420;2022-09-21T14:10:00;22.50;79.10
10352;DHT22;5222;49.324;8.420;2022-09-21T14:12:32;22.00;78.50
10352;DHT22;5222;49.324;8.420;2022-09-21T14:15:38;22.20;79.60
10352;DHT22;5222;49.324;8.420;2022-09-21T14:18:36;22.20;78.30
10352;DHT22;5222;49.324;8.420;2022-09-21T14:21:08;22.20;78.50
10352;DHT22;5222;49.324;8.420;2022-09-21T14:23:35;22.50;77.80
10352;DHT22;5222;49.324;8.420;2022-09-21T14:26:20;22.80;76.90
10352;DHT22;5222;49.324;8.420;2022-09-21T14:28:57;22.90;76.80
10352;DHT22;5222;49.324;8.420;2022-09-21T14:31:28;22.80;77.00
10352;DHT22;5222;49.324;8.420;2022-09-21T14:33:59;23.00;76.80
10352;DHT22;5222;49.324;8.420;2022-09-21T14:36:31;23.20;77.20
10352;DHT22;5222;49.324;8.420;2022-09-21T14:39:04;23.20;76.30
10352;DHT22;5222;49.324;8.420;2022-09-21T14:41:37;22.20;75.00
10352;DHT22;5222;49.324;8.420;2022-09-21T14:44:06;21.70;75.90
10352;DHT22;5222;49.324;8.420;2022-09-21T14:49:39;21.20;76.90
10352;DHT22;5222;49.324;8.420;2022-09-21T14:52:19;21.00;77.80
10352;DHT22;5222;49.324;8.420;2022-09-21T14:54:53;20.90;77.60
10352;DHT22;5222;49.324;8.420;2022-09-21T14:57:48;20.90;78.40
10352;DHT22;5222;49.324;8.420;2022-09-21T15:00:19;21.10;78.20
10352;DHT22;5222;49.324;8.420;2022-09-21T15:03:31;21.10;77.40
10352;DHT22;5222;49.324;8.420;2022-09-21T15:06:12;21.20;77.50
10352;DHT22;5222;49.324;8.420;2022-09-21T15:09:06;21.50;77.50
10352;DHT22;5222;49.324;8.420;2022-09-21T15:12:06;21.70;76.90
10352;DHT22;5222;49.324;8.420;2022-09-21T15:14:40;22.00;75.70
10352;DHT22;5222;49.324;8.420;2022-09-21T15:17:23;22.10;76.20
10352;DHT22;5222;49.324;8.420;2022-09-21T15:19:51;22.20;76.10
10352;DHT22;5222;49.324;8.420;2022-09-21T15:22:22;22.20;75.70
10352;DHT22;5222;49.324;8.420;2022-09-21T15:24:50;22.10;74.70
10352;DHT22;5222;49.324;8.420;2022-09-21T15:27:19;21.70;74.50
10352;DHT22;5222;49.324;8.420;2022-09-21T15:29:53;21.60;74.20
10352;DHT22;5222;49.324;8.420;2022-09-21T15:32:28;21.80;74.50
10352;DHT22;5222;49.324;8.420;2022-09-21T15:35:00;21.90;74.50
10352;DHT22;5222;49.324;8.420;2022-09-21T15:37:27;21.50;74.80
10352;DHT22;5222;49.324;8.420;2022-09-21T15:39:59;21.40;75.10
10352;DHT22;5222;49.324;8.420;2022-09-21T15:42:26;21.60;75.40
10352;DHT22;5222;49.324;8.420;2022-09-21T15:45:12;21.70;75.40
10352;DHT22;5222;49.324;8.420;2022-09-21T15:47:40;21.50;75.50
10352;DHT22;5222;49.324;8.420;2022-09-21T15:50:12;21.40;75.40
10352;DHT22;5222;49.324;8.420;2022-09-21T15:52:42;21.20;76.40
10352;DHT22;5222;49.324;8.420;2022-09-21T15:55:15;21.10;76.40
10352;DHT22;5222;49.324;8.420;2022-09-21T15:57:47;20.90;76.80
10352;DHT22;5222;49.324;8.420;2022-09-21T16:00:37;20.70;77.10
10352;DHT22;5222;49.324;8.420;2022-09-21T16:03:15;20.90;76.60
10352;DHT22;5222;49.324;8.420;2022-09-21T16:05:45;20.60;77.00
10352;DHT22;5222;49.324;8.420;2022-09-21T16:08:19;20.60;76.90
10352;DHT22;5222;49.324;8.420;2022-09-21T16:10:47;20.80;77.00
10352;DHT22;5222;49.324;8.420;2022-09-21T16:13:19;20.80;76.50
10352;DHT22;5222;49.324;8.420;2022-09-21T16:16:08;20.80;76.30
10352;DHT22;5222;49.324;8.420;2022-09-21T16:18:41;20.90;76.60
10352;DHT22;5222;49.324;8.420;2022-09-21T16:21:15;20.90;77.00
10352;DHT22;5222;49.324;8.420;2022-09-21T16:23:45;20.90;77.40
10352;DHT22;5222;49.324;8.420;2022-09-21T16:26:20;21.00;77.80